Isla Nueva, Argentina
Current Conditions -  °F | °C
As of 6:00 AM on Sunday 21 Dec 2014 (Local Time) from SAWH Reporting Station
Drizzle Drizzle  
Wind Chill:   Ceiling: 2500
Heat Index:   Visibility: 6mi
Dew Point:   Wind: 5mph
Humidity: 81%   Direction: 320°NW
Pressure: 29.68"   Gusts: NA
Location:  55.25°S, 66.49°W
Report Text: SAWH 210900Z 32004KT 9999 -DZ BKN025 OVC080 03/M00 Q1005
Loading
Personal Weather Stations






























Interactive Weather Map New forecast layout! Learn more

10-Day Weather Forecast

Advertisements
Track Severe Weather on mobile